Time;durP1;ratioP1;P1;durP2;ratioP2;P2;SDS_P1;SDS_P2;PMS_P1;PMS_P2;Temp;Humidity;BMP_temperature;BMP_pressure;BME280_temperature;BME280_humidity;BME280_pressure;Samples;Min_cycle;Max_cycle;Signal;HPM_P1;HPM_P2
2022/10/02 00:01:23;;;;;;;4.85;3.17;;;20.40;62.40;;;;;;4951438;28;20046;-76
2022/10/02 00:03:49;;;;;;;6.35;3.40;;;20.40;62.40;;;;;;4949730;29;20028;-77
2022/10/02 00:06:20;;;;;;;6.80;3.42;;;20.40;62.50;;;;;;4954701;28;20031;-77
2022/10/02 00:08:50;;;;;;;5.97;3.50;;;20.40;62.50;;;;;;4938358;29;20182;-77
2022/10/02 00:11:27;;;;;;;5.63;3.40;;;20.40;62.50;;;;;;4955070;29;20117;-77
2022/10/02 00:14:00;;;;;;;6.57;3.80;;;20.40;62.50;;;;;;4954721;28;20042;-77
2022/10/02 00:16:39;;;;;;;5.45;3.50;;;20.40;62.50;;;;;;4954209;28;20361;-77
2022/10/02 00:19:05;;;;;;;5.88;3.40;;;20.40;62.50;;;;;;4954766;28;20114;-77
2022/10/02 00:21:47;;;;;;;5.80;3.47;;;20.30;62.50;;;;;;4954203;28;20118;-76
2022/10/02 00:24:17;;;;;;;6.68;3.65;;;20.40;62.50;;;;;;4954321;28;20031;-77
2022/10/02 00:27:04;;;;;;;6.03;3.65;;;20.40;62.60;;;;;;4953982;28;20023;-77
2022/10/02 00:29:44;;;;;;;6.32;3.38;;;20.40;62.50;;;;;;4953403;28;20031;-77
2022/10/02 00:32:26;;;;;;;5.90;3.30;;;20.40;62.50;;;;;;4944341;28;20034;-77
2022/10/02 00:35:00;;;;;;;6.25;3.50;;;20.40;62.50;;;;;;4934860;29;20477;-76
2022/10/02 00:37:32;;;;;;;4.35;3.05;;;20.40;62.50;;;;;;4948536;29;20452;-77
2022/10/02 00:40:36;;;;;;;6.20;3.38;;;20.40;62.60;;;;;;4954924;28;20582;-75
2022/10/02 00:43:45;;;;;;;4.45;3.03;;;20.40;62.60;;;;;;4938543;29;20098;-77
2022/10/02 00:46:21;;;;;;;5.70;3.25;;;20.40;62.50;;;;;;4946002;28;20380;-76
2022/10/02 00:48:56;;;;;;;5.40;3.20;;;20.40;62.50;;;;;;4935584;29;20041;-77
2022/10/02 00:51:22;;;;;;;5.50;3.35;;;20.40;62.50;;;;;;4937915;29;20127;-77
2022/10/02 00:54:02;;;;;;;5.60;3.35;;;20.40;62.50;;;;;;4952112;28;20117;-77
2022/10/02 00:56:49;;;;;;;5.45;3.05;;;20.40;62.40;;;;;;4953325;28;20035;-77
2022/10/02 00:59:24;;;;;;;5.95;3.22;;;20.40;62.40;;;;;;4953389;29;20038;-77
2022/10/02 01:02:03;;;;;;;5.53;3.28;;;20.40;62.30;;;;;;4952442;29;20349;-77
2022/10/02 01:04:34;;;;;;;5.28;3.30;;;20.40;62.30;;;;;;4952339;29;20061;-77
2022/10/02 01:07:03;;;;;;;5.20;2.90;;;20.40;62.30;;;;;;4951309;28;20031;-78
2022/10/02 01:09:28;;;;;;;4.47;3.07;;;20.40;62.40;;;;;;4953697;28;20028;-77
2022/10/02 01:11:54;;;;;;;5.55;3.05;;;20.40;62.30;;;;;;4952000;28;20278;-77
2022/10/02 01:14:30;;;;;;;4.82;3.28;;;20.40;62.40;;;;;;4953173;28;20043;-77
2022/10/02 01:16:55;;;;;;;4.70;3.20;;;20.40;62.40;;;;;;4952681;28;20519;-77
2022/10/02 01:19:36;;;;;;;5.97;3.33;;;20.40;62.40;;;;;;4937538;29;20023;-77
2022/10/02 01:22:25;;;;;;;5.03;3.20;;;20.40;62.40;;;;;;4933337;29;20039;-77
2022/10/02 01:24:55;;;;;;;5.25;3.25;;;20.40;62.50;;;;;;4933716;29;20221;-76
2022/10/02 01:27:23;;;;;;;4.63;3.10;;;20.40;62.50;;;;;;4933964;29;20040;-76
2022/10/02 01:30:10;;;;;;;5.38;3.13;;;20.40;62.50;;;;;;4933508;29;20580;-77
2022/10/02 01:32:40;;;;;;;4.40;3.10;;;20.40;62.50;;;;;;4933976;29;20035;-76
2022/10/02 01:35:06;;;;;;;5.45;3.30;;;20.40;62.50;;;;;;4932200;29;20078;-76
2022/10/02 01:37:36;;;;;;;4.95;3.15;;;20.40;62.50;;;;;;4933714;29;20414;-76
2022/10/02 01:40:08;;;;;;;5.00;3.15;;;20.30;62.40;;;;;;4918491;29;20488;-77
2022/10/02 01:42:34;;;;;;;6.03;3.15;;;20.40;62.50;;;;;;4952740;28;20042;-77
2022/10/02 01:45:02;;;;;;;5.63;2.83;;;20.40;62.50;;;;;;4952434;28;20086;-76
2022/10/02 01:47:52;;;;;;;5.15;3.30;;;20.30;62.50;;;;;;4929699;29;20365;-76
2022/10/02 01:50:18;;;;;;;;;;;20.40;62.50;;;;;;4933498;29;20035;-76
2022/10/02 01:53:07;;;;;;;4.10;2.55;;;20.40;62.50;;;;;;4932172;29;19938;-77
2022/10/02 01:55:36;;;;;;;5.30;3.47;;;20.30;62.50;;;;;;4933255;29;20131;-76
2022/10/02 01:58:32;;;;;;;5.53;3.30;;;20.30;62.50;;;;;;4931953;29;20059;-76
2022/10/02 02:01:10;;;;;;;4.57;2.80;;;20.30;62.50;;;;;;4945458;29;20271;-76
2022/10/02 02:03:46;;;;;;;7.05;3.25;;;20.40;62.60;;;;;;4952984;28;20038;-76
2022/10/02 02:06:37;;;;;;;5.60;3.00;;;20.30;62.50;;;;;;4948615;28;20028;-76
2022/10/02 02:09:03;;;;;;;4.07;3.00;;;20.40;62.50;;;;;;4933343;29;20139;-76
2022/10/02 02:11:30;;;;;;;5.75;3.22;;;20.30;62.50;;;;;;4931903;29;20122;-76
2022/10/02 02:14:09;;;;;;;4.57;2.88;;;20.40;62.50;;;;;;4932665;29;20038;-76
2022/10/02 02:16:43;;;;;;;4.10;2.70;;;20.40;62.40;;;;;;4933002;29;20031;-77
2022/10/02 02:19:24;;;;;;;4.57;2.75;;;20.40;62.40;;;;;;4933298;29;20082;-77
2022/10/02 02:21:59;;;;;;;4.00;2.60;;;20.40;62.40;;;;;;4950649;29;20031;-76
2022/10/02 02:24:48;;;;;;;5.68;2.78;;;20.40;62.40;;;;;;4952719;28;20038;-75
2022/10/02 02:27:20;;;;;;;4.60;2.70;;;20.40;62.30;;;;;;4952703;28;20043;-76
2022/10/02 02:29:50;;;;;;;5.80;3.20;;;20.40;62.40;;;;;;4952661;28;20781;-75
2022/10/02 02:32:19;;;;;;;4.75;2.80;;;20.40;62.40;;;;;;4945402;29;20028;-77
2022/10/02 02:34:52;;;;;;;5.10;3.00;;;20.40;62.40;;;;;;4937994;29;20039;-76
2022/10/02 02:37:22;;;;;;;4.85;2.90;;;20.40;62.40;;;;;;4933077;29;20284;-77
2022/10/02 02:39:55;;;;;;;4.07;2.78;;;20.40;62.40;;;;;;4946547;29;20170;-77
2022/10/02 02:42:25;;;;;;;4.90;2.92;;;20.40;62.40;;;;;;4951404;28;20039;-77
2022/10/02 02:44:58;;;;;;;;;;;20.30;62.40;;;;;;4952233;28;20039;-77
2022/10/02 02:47:31;;;;;;;4.45;2.75;;;20.30;62.40;;;;;;4936458;28;19958;-77
2022/10/02 02:49:57;;;;;;;4.40;2.80;;;20.30;62.40;;;;;;4915543;29;20039;-77
2022/10/02 02:52:32;;;;;;;4.47;2.70;;;20.30;62.40;;;;;;4932436;29;20038;-77
2022/10/02 02:55:08;;;;;;;4.88;2.95;;;20.30;62.50;;;;;;4932310;29;20074;-76
2022/10/02 02:57:42;;;;;;;5.38;3.05;;;20.30;62.50;;;;;;4936788;29;20031;-77
2022/10/02 03:00:08;;;;;;;4.15;2.60;;;20.30;62.50;;;;;;4941116;28;20034;-77
2022/10/02 03:02:34;;;;;;;4.70;2.80;;;20.30;62.50;;;;;;4944262;29;20043;-77
2022/10/02 03:05:00;;;;;;;5.60;3.03;;;20.30;62.50;;;;;;4949678;29;20384;-76
2022/10/02 03:07:25;;;;;;;5.78;3.25;;;20.30;62.50;;;;;;4949608;28;20031;-77
2022/10/02 03:10:27;;;;;;;5.70;2.95;;;20.30;62.50;;;;;;4951324;28;20558;-77
2022/10/02 03:13:05;;;;;;;4.28;2.67;;;20.30;62.50;;;;;;4949749;29;20631;-77
2022/10/02 03:16:20;;;;;;;5.25;2.80;;;20.30;62.50;;;;;;4932179;29;20043;-77
2022/10/02 03:19:00;;;;;;;4.50;3.10;;;20.30;62.50;;;;;;4910345;29;20047;-76
2022/10/02 03:21:46;;;;;;;3.22;2.35;;;20.30;62.50;;;;;;4951194;28;20035;-77
2022/10/02 03:24:27;;;;;;;5.00;2.67;;;20.30;62.50;;;;;;4950911;28;20027;-77
2022/10/02 03:27:09;;;;;;;4.30;2.67;;;20.30;62.50;;;;;;4914504;29;20036;-77
2022/10/02 03:29:44;;;;;;;4.68;2.65;;;20.30;62.50;;;;;;4943780;29;20038;-77
2022/10/02 03:32:13;;;;;;;4.43;2.97;;;20.30;62.50;;;;;;4936847;28;20091;-77
2022/10/02 03:34:39;;;;;;;4.75;2.60;;;20.30;62.50;;;;;;4953227;28;20383;-77
2022/10/02 03:37:05;;;;;;;4.47;2.80;;;20.30;62.40;;;;;;4949825;28;20039;-77
2022/10/02 03:39:31;;;;;;;5.13;2.80;;;20.30;62.40;;;;;;4937168;29;20032;-77
2022/10/02 03:41:57;;;;;;;3.90;2.30;;;20.30;62.40;;;;;;4937415;29;20404;-77
2022/10/02 03:44:23;;;;;;;4.15;2.72;;;20.40;62.40;;;;;;4938483;29;20024;-77
2022/10/02 03:46:49;;;;;;;4.32;2.75;;;20.30;62.30;;;;;;4938391;29;20103;-77
2022/10/02 03:49:15;;;;;;;4.53;2.65;;;20.40;62.30;;;;;;4936799;29;20036;-76
2022/10/02 03:51:41;;;;;;;5.03;2.80;;;20.40;62.40;;;;;;4938132;29;20030;-77
2022/10/02 03:54:19;;;;;;;4.07;2.65;;;20.40;62.40;;;;;;4938108;29;20769;-77
2022/10/02 03:57:02;;;;;;;5.00;2.70;;;20.30;62.40;;;;;;4936184;29;20050;-77
2022/10/02 03:59:38;;;;;;;5.50;2.70;;;20.40;62.40;;;;;;4938210;29;20038;-77
2022/10/02 04:02:11;;;;;;;3.92;2.58;;;20.30;62.40;;;;;;4942464;28;20490;-77
2022/10/02 04:04:49;;;;;;;4.03;2.47;;;20.30;62.40;;;;;;4956824;28;20480;-77
2022/10/02 04:07:24;;;;;;;4.93;2.55;;;20.30;62.40;;;;;;4956963;28;20122;-77
2022/10/02 04:10:22;;;;;;;3.95;2.50;;;20.30;62.40;;;;;;4957378;28;20034;-77
2022/10/02 04:12:51;;;;;;;4.40;2.50;;;20.30;62.40;;;;;;4948074;28;20435;-77
2022/10/02 04:15:22;;;;;;;4.65;2.42;;;20.30;62.50;;;;;;4952544;28;20496;-77
2022/10/02 04:18:01;;;;;;;4.63;2.83;;;20.30;62.50;;;;;;4938155;29;20070;-77
2022/10/02 04:20:35;;;;;;;3.40;2.30;;;20.30;62.50;;;;;;4957480;28;20387;-77
2022/10/02 04:23:29;;;;;;;5.40;2.70;;;20.30;62.50;;;;;;4956092;29;20267;-77
2022/10/02 04:26:13;;;;;;;3.75;2.55;;;20.30;62.50;;;;;;4952333;28;20035;-78
2022/10/02 04:28:44;;;;;;;3.97;2.30;;;20.30;62.50;;;;;;4956866;28;20116;-77
2022/10/02 04:31:12;;;;;;;4.80;2.40;;;20.30;62.50;;;;;;4941043;28;20492;-77
2022/10/02 04:33:38;;;;;;;4.15;2.60;;;20.30;62.50;;;;;;4936456;29;20028;-77
2022/10/02 04:36:10;;;;;;;3.15;2.20;;;20.30;62.50;;;;;;4920230;29;20111;-77
2022/10/02 04:38:47;;;;;;;4.93;2.28;;;20.30;62.50;;;;;;4936666;29;20030;-77
2022/10/02 04:41:21;;;;;;;4.15;2.65;;;20.30;62.50;;;;;;4937124;29;20031;-77
2022/10/02 04:43:50;;;;;;;3.67;2.28;;;20.30;62.50;;;;;;4922963;29;20492;-77
2022/10/02 04:46:24;;;;;;;3.65;2.40;;;20.30;62.50;;;;;;4954352;28;20138;-78
2022/10/02 04:49:20;;;;;;;5.47;2.95;;;20.30;62.50;;;;;;4943362;28;20471;-77
2022/10/02 04:51:52;;;;;;;4.20;2.53;;;20.30;62.50;;;;;;4934652;29;20040;-78
2022/10/02 04:54:28;;;;;;;3.45;2.15;;;20.30;62.40;;;;;;4937739;29;20031;-78
2022/10/02 04:57:03;;;;;;;4.03;2.30;;;20.30;62.40;;;;;;4952871;28;20061;-77
2022/10/02 04:59:34;;;;;;;4.15;2.40;;;20.30;62.40;;;;;;4946580;28;20027;-77
2022/10/02 05:02:12;;;;;;;3.80;2.17;;;20.30;62.40;;;;;;4933080;29;20031;-77
2022/10/02 05:04:37;;;;;;;4.38;2.67;;;20.30;62.40;;;;;;4935546;29;20047;-77
2022/10/02 05:07:23;;;;;;;4.32;2.30;;;20.30;62.30;;;;;;4932033;29;20125;-77
2022/10/02 05:10:01;;;;;;;4.97;2.42;;;20.30;62.30;;;;;;4933749;29;20631;-77
2022/10/02 05:13:09;;;;;;;2.97;2.30;;;20.30;62.30;;;;;;4933986;29;20028;-76
2022/10/02 05:15:44;;;;;;;3.80;2.50;;;20.30;62.30;;;;;;4928178;28;20045;-77
2022/10/02 05:18:28;;;;;;;4.45;2.42;;;20.30;62.30;;;;;;4951378;28;20433;-77
2022/10/02 05:21:39;;;;;;;3.78;2.45;;;20.30;62.30;;;;;;4952363;28;20034;-77
2022/10/02 05:24:17;;;;;;;4.03;2.40;;;20.30;62.40;;;;;;4949951;28;20031;-77
2022/10/02 05:27:06;;;;;;;3.92;2.47;;;20.30;62.40;;;;;;4916488;29;20476;-77
2022/10/02 05:29:53;;;;;;;3.80;2.35;;;20.30;62.40;;;;;;4933808;29;20103;-77
2022/10/02 05:33:11;;;;;;;4.22;2.28;;;20.30;62.40;;;;;;4933341;29;20032;-77
2022/10/02 05:35:56;;;;;;;4.57;2.60;;;20.30;62.40;;;;;;4916494;29;20547;-77
2022/10/02 05:38:27;;;;;;;3.47;2.42;;;20.30;62.40;;;;;;4948387;29;20042;-76
2022/10/02 05:40:56;;;;;;;3.67;2.28;;;20.30;62.50;;;;;;4936416;28;20517;-77
2022/10/02 05:43:44;;;;;;;3.70;2.30;;;20.30;62.50;;;;;;4933963;29;20477;-76
2022/10/02 05:46:42;;;;;;;3.50;2.28;;;20.30;62.50;;;;;;4933024;29;20106;-76
2022/10/02 05:49:13;;;;;;;4.30;2.47;;;20.30;62.50;;;;;;4931922;29;20130;-75
2022/10/02 05:52:19;;;;;;;4.22;2.17;;;20.30;62.50;;;;;;4948359;29;20078;-76
2022/10/02 05:54:51;;;;;;;4.63;2.58;;;20.30;62.50;;;;;;4903585;29;20068;-76
2022/10/02 05:57:40;;;;;;;3.92;2.10;;;20.30;62.50;;;;;;4896671;29;20049;-76
2022/10/02 06:00:08;;;;;;;3.90;2.30;;;20.30;62.50;;;;;;4924074;29;20126;-76
2022/10/02 06:03:14;;;;;;;4.30;2.30;;;20.30;62.50;;;;;;4951840;28;20325;-76
2022/10/02 06:06:06;;;;;;;2.65;1.75;;;20.30;62.50;;;;;;4944991;28;20103;-75
2022/10/02 06:08:40;;;;;;;3.13;2.08;;;20.30;62.50;;;;;;4933145;29;20039;-76
2022/10/02 06:11:30;;;;;;;4.50;2.47;;;20.30;62.50;;;;;;4932211;29;20370;-76
2022/10/02 06:14:13;;;;;;;3.88;2.30;;;20.30;62.50;;;;;;4926970;29;20044;-76
2022/10/02 06:16:51;;;;;;;4.35;2.40;;;20.30;62.50;;;;;;4949265;28;20050;-77
2022/10/02 06:19:29;;;;;;;2.95;2.03;;;20.30;62.50;;;;;;4952022;28;20534;-77
2022/10/02 06:22:12;;;;;;;3.60;2.38;;;20.30;62.50;;;;;;4952263;28;20040;-77
2022/10/02 06:24:50;;;;;;;3.85;2.17;;;20.30;62.50;;;;;;4951729;28;20039;-76
2022/10/02 06:27:42;;;;;;;3.47;2.20;;;20.30;62.50;;;;;;4934431;29;20039;-77
2022/10/02 06:30:11;;;;;;;5.15;2.53;;;20.30;62.40;;;;;;4916223;29;20031;-77
2022/10/02 06:32:56;;;;;;;;;;;20.30;62.40;;;;;;4932863;29;20043;-76
2022/10/02 06:35:37;;;;;;;3.38;2.20;;;20.30;62.40;;;;;;4931437;29;20049;-76
2022/10/02 06:38:21;;;;;;;5.30;2.40;;;20.30;62.40;;;;;;4931965;29;20164;-76
2022/10/02 06:41:08;;;;;;;5.05;2.53;;;20.30;62.40;;;;;;4921373;29;20039;-77
2022/10/02 06:43:43;;;;;;;5.00;2.22;;;20.30;63.00;;;;;;4952015;28;20552;-77
2022/10/02 06:46:21;;;;;;;3.15;2.20;;;20.30;62.50;;;;;;4951272;28;20523;-77
2022/10/02 06:48:54;;;;;;;3.97;2.30;;;20.30;62.50;;;;;;4952161;28;20043;-77
2022/10/02 06:51:25;;;;;;;3.72;2.30;;;20.30;62.50;;;;;;4941227;29;20118;-77
2022/10/02 06:53:54;;;;;;;3.13;2.10;;;20.30;62.50;;;;;;4951091;28;20102;-77
2022/10/02 06:56:52;;;;;;;4.18;2.40;;;20.30;62.50;;;;;;4951078;28;20441;-77
2022/10/02 06:59:43;;;;;;;3.83;2.30;;;20.30;62.60;;;;;;4930853;29;20110;-76
2022/10/02 07:02:23;;;;;;;4.05;2.22;;;20.30;62.60;;;;;;4930971;29;20077;-77
2022/10/02 07:05:20;;;;;;;;;;;20.30;62.50;;;;;;4943676;29;20197;-78
2022/10/02 07:07:56;;;;;;;2.92;1.90;;;20.30;62.50;;;;;;4949656;28;19910;-78
2022/10/02 07:10:32;;;;;;;3.83;2.30;;;20.30;62.50;;;;;;4949109;28;20078;-78
2022/10/02 07:13:11;;;;;;;4.53;2.30;;;20.30;62.50;;;;;;4951333;28;20054;-78
2022/10/02 07:16:12;;;;;;;4.50;2.30;;;20.30;62.50;;;;;;4935430;28;20038;-78
2022/10/02 07:19:04;;;;;;;3.70;2.22;;;20.30;62.60;;;;;;4931805;29;20403;-77
2022/10/02 07:21:54;;;;;;;3.45;2.10;;;20.30;62.60;;;;;;4922694;29;20028;-78
2022/10/02 07:24:25;;;;;;;;;;;20.30;62.60;;;;;;4929047;29;20028;-77
2022/10/02 07:27:21;;;;;;;3.70;2.20;;;20.30;62.60;;;;;;4933467;29;19918;-77
2022/10/02 07:30:03;;;;;;;3.78;2.30;;;20.30;62.50;;;;;;4949599;29;20039;-78
2022/10/02 07:32:41;;;;;;;3.20;2.20;;;20.30;62.50;;;;;;4950185;28;20066;-78
2022/10/02 07:35:19;;;;;;;3.95;2.38;;;20.40;62.60;;;;;;4949931;28;20062;-78
2022/10/02 07:38:23;;;;;;;4.63;2.25;;;20.40;62.50;;;;;;4942024;28;20040;-77
2022/10/02 07:40:53;;;;;;;4.70;2.15;;;20.40;62.40;;;;;;4940120;28;20078;-77
2022/10/02 07:43:46;;;;;;;4.68;2.28;;;20.40;62.30;;;;;;4945284;28;20393;-77
2022/10/02 07:46:30;;;;;;;3.65;1.92;;;20.40;62.30;;;;;;4931966;29;20551;-77
2022/10/02 07:49:25;;;;;;;2.92;2.30;;;20.50;62.60;;;;;;4946294;28;20032;-77
2022/10/02 07:52:03;;;;;;;4.18;2.25;;;20.50;62.60;;;;;;4949635;29;20031;-77
2022/10/02 07:54:31;;;;;;;3.33;2.22;;;20.50;63.00;;;;;;4917331;29;20043;-77
2022/10/02 07:57:07;;;;;;;5.15;2.45;;;20.50;62.60;;;;;;4940153;28;20027;-78
2022/10/02 07:59:36;;;;;;;3.25;2.20;;;20.50;62.60;;;;;;4928168;29;20023;-77
2022/10/02 08:02:10;;;;;;;3.42;2.33;;;20.50;62.60;;;;;;4937475;29;20118;-77
2022/10/02 08:04:36;;;;;;;4.90;2.45;;;20.50;62.40;;;;;;4945093;28;20111;-77
2022/10/02 08:07:05;;;;;;;4.72;2.45;;;20.40;62.30;;;;;;4917359;29;20058;-78
2022/10/02 08:09:36;;;;;;;3.05;2.15;;;20.40;62.60;;;;;;4950228;28;20035;-77
2022/10/02 08:12:27;;;;;;;5.13;2.50;;;20.40;62.50;;;;;;4949827;28;20488;-77
2022/10/02 08:14:55;;;;;;;3.97;2.33;;;20.40;62.60;;;;;;4949443;28;20035;-77
2022/10/02 08:17:51;;;;;;;4.55;2.40;;;20.40;62.70;;;;;;4950220;28;20106;-78
2022/10/02 08:20:40;;;;;;;5.95;2.63;;;20.40;62.70;;;;;;4950257;28;20111;-77
2022/10/02 08:23:20;;;;;;;3.17;2.13;;;20.40;62.60;;;;;;4936635;29;20043;-77
2022/10/02 08:26:17;;;;;;;4.25;2.58;;;20.40;62.70;;;;;;4934243;29;20421;-78
2022/10/02 08:29:05;;;;;;;4.53;2.53;;;20.40;62.70;;;;;;4934642;29;20039;-78
2022/10/02 08:31:31;;;;;;;4.25;2.50;;;20.40;62.60;;;;;;4952205;28;20066;-78
2022/10/02 08:34:19;;;;;;;5.13;2.60;;;20.40;62.60;;;;;;4942683;29;20039;-77
2022/10/02 08:37:09;;;;;;;3.38;2.35;;;20.40;62.60;;;;;;4946471;28;20119;-78
2022/10/02 08:40:17;;;;;;;6.00;2.50;;;20.40;62.70;;;;;;4935152;29;20028;-78
2022/10/02 08:43:07;;;;;;;4.10;2.30;;;20.40;62.70;;;;;;4926049;29;20515;-78
2022/10/02 08:46:12;;;;;;;4.68;2.45;;;20.40;62.90;;;;;;4932387;29;20051;-77
2022/10/02 08:48:56;;;;;;;3.08;2.15;;;20.40;62.80;;;;;;4942152;29;20028;-78
2022/10/02 08:51:31;;;;;;;4.40;2.38;;;20.40;62.80;;;;;;4953460;28;20515;-78
2022/10/02 08:54:22;;;;;;;3.58;2.10;;;20.40;62.80;;;;;;4952010;29;20038;-78
2022/10/02 08:57:15;;;;;;;4.70;2.45;;;20.40;62.80;;;;;;4953682;28;20106;-78
2022/10/02 09:00:00;;;;;;;4.20;2.20;;;20.40;62.90;;;;;;4952135;29;20035;-78
2022/10/02 09:02:56;;;;;;;4.57;2.70;;;20.40;62.80;;;;;;4932333;29;21228;-77
2022/10/02 09:05:51;;;;;;;5.03;2.30;;;20.40;62.70;;;;;;4935342;29;20040;-77
2022/10/02 09:08:50;;;;;;;4.55;2.70;;;20.40;62.70;;;;;;4934247;29;20392;-76
2022/10/02 09:11:27;;;;;;;4.55;2.08;;;20.50;62.80;;;;;;4948293;29;20127;-77
2022/10/02 09:13:53;;;;;;;4.45;2.50;;;20.40;62.70;;;;;;4950646;29;20145;-78
2022/10/02 09:16:38;;;;;;;2.92;2.17;;;20.40;62.70;;;;;;4932159;29;20040;-78
2022/10/02 09:19:25;;;;;;;4.90;2.75;;;20.40;62.70;;;;;;4934172;29;20043;-78
2022/10/02 09:22:01;;;;;;;4.55;2.45;;;20.50;62.80;;;;;;4933513;29;20070;-79
2022/10/02 09:25:20;;;;;;;4.30;2.58;;;20.40;62.80;;;;;;4933716;29;20046;-78
2022/10/02 09:28:13;;;;;;;3.97;2.17;;;20.40;62.80;;;;;;4934449;29;20134;-79
2022/10/02 09:31:01;;;;;;;4.32;2.50;;;20.40;62.80;;;;;;4943716;28;20051;-78
2022/10/02 09:33:59;;;;;;;4.63;2.40;;;20.40;62.80;;;;;;4951406;28;20043;-78
2022/10/02 09:36:44;;;;;;;4.72;2.42;;;20.40;62.90;;;;;;4900784;28;20062;-79
2022/10/02 09:39:32;;;;;;;5.25;2.53;;;20.40;62.80;;;;;;4935502;29;20393;-77
2022/10/02 09:42:33;;;;;;;3.83;2.03;;;20.40;62.90;;;;;;4940961;29;20079;-78
2022/10/02 09:45:35;;;;;;;4.50;2.20;;;20.40;62.90;;;;;;4932659;29;20044;-78
2022/10/02 09:48:41;;;;;;;5.10;2.63;;;20.40;62.80;;;;;;4932075;29;20416;-78
2022/10/02 09:51:26;;;;;;;2.80;1.92;;;20.40;62.90;;;;;;4941470;29;20320;-78
2022/10/02 09:54:25;;;;;;;5.45;2.40;;;20.40;62.90;;;;;;4938570;28;20028;-78
2022/10/02 09:57:27;;;;;;;4.40;2.30;;;20.40;62.80;;;;;;4936361;29;20032;-78
2022/10/02 10:00:17;;;;;;;4.20;2.15;;;20.40;62.80;;;;;;4929238;29;20449;-78
2022/10/02 10:03:07;;;;;;;4.82;2.40;;;20.50;62.80;;;;;;4928491;28;20035;-77
2022/10/02 10:06:00;;;;;;;4.07;2.20;;;20.50;62.90;;;;;;4922104;29;20043;-78
2022/10/02 10:09:10;;;;;;;4.47;2.78;;;20.40;62.80;;;;;;4913808;29;20040;-76
2022/10/02 10:12:04;;;;;;;8.65;2.88;;;20.50;63.40;;;;;;4907562;29;20072;-76
2022/10/02 10:15:09;;;;;;;4.78;2.35;;;20.50;64.30;;;;;;4931028;29;20035;-77
2022/10/02 10:18:11;;;;;;;8.00;2.55;;;20.40;64.70;;;;;;4949495;28;20144;-78
2022/10/02 10:21:06;;;;;;;4.32;2.30;;;20.40;64.30;;;;;;4949566;28;20035;-76
2022/10/02 10:24:01;;;;;;;9.15;3.00;;;20.50;64.70;;;;;;4939020;29;20032;-77
2022/10/02 10:26:47;;;;;;;33.30;6.47;;;20.60;66.50;;;;;;4946600;28;20040;-76
2022/10/02 10:30:02;;;;;;;24.20;4.88;;;20.60;65.30;;;;;;4941020;29;20171;-83
2022/10/02 10:32:50;;;;;;;21.40;4.75;;;20.50;63.60;;;;;;4898745;29;20424;-76
2022/10/02 10:35:41;;;;;;;29.48;6.22;;;20.60;65.10;;;;;;4942686;29;20038;-80
2022/10/02 10:38:34;;;;;;;23.35;5.40;;;20.60;65.90;;;;;;4951884;29;20023;-77
2022/10/02 10:41:27;;;;;;;28.40;6.18;;;20.70;66.10;;;;;;4940751;28;20031;-78
2022/10/02 10:44:12;;;;;;;21.23;6.53;;;20.70;66.00;;;;;;4941365;28;20086;-77
2022/10/02 10:46:38;;;;;;;22.45;10.15;;;20.50;65.30;;;;;;4937487;29;20130;-76
2022/10/02 10:49:18;;;;;;;19.80;6.68;;;20.50;61.20;;;;;;4933120;29;20175;-82
2022/10/02 10:52:06;;;;;;;22.95;6.57;;;20.20;63.50;;;;;;4937292;29;20024;-79
2022/10/02 10:55:06;;;;;;;16.48;6.38;;;20.20;63.40;;;;;;4923131;29;20075;-80
2022/10/02 10:57:43;;;;;;;20.58;6.32;;;20.30;63.60;;;;;;4933956;29;20439;-80
2022/10/02 11:00:23;;;;;;;19.80;5.85;;;20.30;63.40;;;;;;4932084;29;20036;-82
2022/10/02 11:03:03;;;;;;;15.80;6.35;;;20.30;63.00;;;;;;4943258;28;20039;-82
2022/10/02 11:05:54;;;;;;;21.83;5.88;;;20.40;63.00;;;;;;4930309;29;20514;-79
2022/10/02 11:08:46;;;;;;;17.42;5.05;;;20.40;63.90;;;;;;4943418;29;20156;-79
2022/10/02 11:11:37;;;;;;;16.40;5.57;;;20.50;63.50;;;;;;4917635;29;20047;-78
2022/10/02 11:14:09;;;;;;;13.45;5.13;;;20.50;63.40;;;;;;4930173;29;20060;-80
2022/10/02 11:17:17;;;;;;;16.17;5.25;;;20.50;63.40;;;;;;4931069;29;20498;-78
2022/10/02 11:20:02;;;;;;;17.88;4.95;;;20.50;63.50;;;;;;4935251;29;20087;-79
2022/10/02 11:23:03;;;;;;;11.38;5.20;;;20.50;63.50;;;;;;4935593;29;20447;-80
2022/10/02 11:26:00;;;;;;;15.50;5.13;;;20.50;63.60;;;;;;4924497;29;20043;-79
2022/10/02 11:28:59;;;;;;;12.00;4.45;;;20.50;63.70;;;;;;4934357;29;20031;-79
2022/10/02 11:31:45;;;;;;;14.05;4.88;;;20.50;63.80;;;;;;4928987;29;20118;-78
2022/10/02 11:34:51;;;;;;;14.90;4.40;;;20.50;63.80;;;;;;4948334;29;20035;-81
2022/10/02 11:37:16;;;;;;;15.10;5.10;;;20.50;63.90;;;;;;4934465;29;20027;-80
2022/10/02 11:40:00;;;;;;;12.68;5.15;;;20.50;63.90;;;;;;4935374;29;20040;-81
2022/10/02 11:42:45;;;;;;;13.10;4.97;;;20.50;64.00;;;;;;4948238;28;20536;-77
2022/10/02 11:45:24;;;;;;;13.55;5.20;;;20.50;63.90;;;;;;4951227;28;20031;-78
2022/10/02 11:47:56;;;;;;;11.15;4.43;;;20.50;63.80;;;;;;4949216;28;20143;-82
2022/10/02 11:50:25;;;;;;;10.00;4.60;;;20.60;63.80;;;;;;4950103;28;20050;-83
2022/10/02 11:53:33;;;;;;;18.55;5.03;;;20.60;63.80;;;;;;4940484;28;20031;-80
2022/10/02 11:56:21;;;;;;;12.32;4.60;;;20.60;63.80;;;;;;4936509;29;20036;-80
2022/10/02 11:58:52;;;;;;;13.52;5.10;;;20.60;63.80;;;;;;4926192;29;20059;-78
2022/10/02 12:01:32;;;;;;;10.68;4.55;;;20.60;63.90;;;;;;4953045;28;20090;-78
2022/10/02 12:04:20;;;;;;;14.23;5.20;;;20.60;65.00;;;;;;4946808;28;20035;-77
2022/10/02 12:06:59;;;;;;;14.30;5.40;;;20.70;65.70;;;;;;4931911;29;20575;-77
2022/10/02 12:09:53;;;;;;;15.07;4.95;;;20.70;66.70;;;;;;4942565;28;20031;-78
2022/10/02 12:12:19;;;;;;;15.32;5.03;;;20.70;65.70;;;;;;4946776;29;20039;-81
2022/10/02 12:14:51;;;;;;;16.00;5.25;;;20.70;66.80;;;;;;4933094;29;20084;-75
2022/10/02 12:18:01;;;;;;;11.05;4.82;;;20.70;66.90;;;;;;4930939;29;20039;-75
2022/10/02 12:27:09;;;;;;;14.15;4.95;;;20.70;66.40;;;;;;4929618;29;20417;-75
2022/10/02 12:30:02;;;;;;;16.02;4.47;;;20.70;65.10;;;;;;4933194;29;20532;-76
2022/10/02 12:32:35;;;;;;;16.95;5.20;;;20.70;65.20;;;;;;4934207;29;20039;-75
2022/10/02 12:35:30;;;;;;;16.05;5.50;;;20.70;65.20;;;;;;4934897;29;20032;-75
2022/10/02 12:38:20;;;;;;;16.00;5.28;;;20.70;65.60;;;;;;4950585;29;20035;-75
2022/10/02 12:41:12;;;;;;;13.48;5.03;;;20.70;65.40;;;;;;4951093;29;20040;-75
2022/10/02 12:43:52;;;;;;;14.93;5.85;;;20.70;65.80;;;;;;4942225;29;20044;-74
2022/10/02 12:46:21;;;;;;;11.95;5.32;;;20.70;66.50;;;;;;4935145;29;20027;-75
2022/10/02 12:48:50;;;;;;;16.52;5.82;;;20.70;66.50;;;;;;4933237;29;20035;-76
2022/10/02 12:51:28;;;;;;;23.92;8.30;;;20.70;66.70;;;;;;4934846;29;20419;-76
2022/10/02 12:54:33;;;;;;;28.60;8.30;;;20.70;66.70;;;;;;4934655;29;20036;-76
2022/10/02 12:57:50;;;;;;;27.70;9.02;;;20.70;66.80;;;;;;4946109;28;20040;-75
2022/10/02 13:00:06;;;;;;;25.23;9.57;;;20.70;66.70;;;;;;4934343;29;20031;-75
2022/10/02 13:02:58;;;;;;;25.00;9.18;;;20.70;66.70;;;;;;4939701;29;20039;-75
2022/10/02 13:06:02;;;;;;;27.80;9.25;;;20.70;66.70;;;;;;4937262;28;20042;-75
2022/10/02 13:08:53;;;;;;;29.30;9.95;;;20.70;66.70;;;;;;4946262;29;20040;-75
2022/10/02 13:12:02;;;;;;;28.50;9.95;;;20.70;66.60;;;;;;4953984;28;20067;-75
2022/10/02 13:15:01;;;;;;;27.27;9.48;;;20.70;66.50;;;;;;4943175;28;20032;-76
2022/10/02 13:17:32;;;;;;;26.42;8.93;;;20.70;66.50;;;;;;4941474;29;20499;-77
2022/10/02 13:20:02;;;;;;;31.65;9.63;;;20.70;66.50;;;;;;4936698;29;20101;-77
2022/10/02 13:22:38;;;;;;;;;;;20.80;66.40;;;;;;4933388;29;20075;-76
2022/10/02 13:25:33;;;;;;;30.08;9.85;;;20.70;66.30;;;;;;4928825;29;20548;-76
2022/10/02 13:28:26;;;;;;;24.95;8.98;;;20.70;66.40;;;;;;4941311;29;20032;-76
2022/10/02 13:31:01;;;;;;;23.15;8.68;;;20.70;66.30;;;;;;4941259;29;20031;-76
2022/10/02 13:33:54;;;;;;;23.73;8.60;;;20.70;65.80;;;;;;4941892;28;20027;-77
2022/10/02 13:36:50;;;;;;;24.65;7.85;;;20.70;66.00;;;;;;4953698;28;20039;-77
2022/10/02 13:39:33;;;;;;;22.17;8.23;;;20.70;66.20;;;;;;4951531;28;20337;-77
2022/10/02 13:42:18;;;;;;;23.42;8.45;;;20.70;66.10;;;;;;4931983;29;20028;-76
2022/10/02 13:45:33;;;;;;;23.35;8.02;;;20.70;66.10;;;;;;4928401;29;20885;-77
2022/10/02 13:48:05;;;;;;;23.50;8.82;;;20.70;66.20;;;;;;4924332;29;20887;-73
2022/10/02 13:50:58;;;;;;;28.27;9.65;;;20.70;66.80;;;;;;4920176;29;21021;-80
2022/10/02 13:53:56;;;;;;;29.00;9.45;;;20.80;66.70;;;;;;4947751;28;20050;-77
2022/10/02 13:56:37;;;;;;;32.42;10.32;;;20.80;66.60;;;;;;4897645;29;20048;-75
2022/10/02 13:59:12;;;;;;;24.88;9.45;;;20.80;66.40;;;;;;4938374;29;20100;-74
2022/10/02 14:01:55;;;;;;;30.08;9.57;;;20.80;66.40;;;;;;4939432;29;20500;-75
2022/10/02 14:04:26;;;;;;;26.48;9.20;;;20.80;66.40;;;;;;4931385;29;20059;-75
2022/10/02 14:07:29;;;;;;;28.52;8.40;;;20.80;66.40;;;;;;4932989;29;20032;-75
2022/10/02 14:10:07;;;;;;;22.88;8.15;;;20.80;66.40;;;;;;4916572;29;20033;-74